sensor_id;sensor_type;location;lat;lon;timestamp;noise_LAeq;noise_LA_min;noise_LA_max;noise_LA01;noise_LA95
69670;Laerm;66535;52.370;4.832;2023-08-24T00:00:25;36.41;34.28;38.99;;
69670;Laerm;66535;52.370;4.832;2023-08-24T00:00:56;44.40;35.93;61.96;;
69670;Laerm;66535;52.370;4.832;2023-08-24T00:01:28;39.06;35.56;47.88;;
69670;Laerm;66535;52.370;4.832;2023-08-24T00:02:00;43.71;36.60;53.10;;
69670;Laerm;66535;52.370;4.832;2023-08-24T00:02:31;42.11;37.31;51.96;;
69670;Laerm;66535;52.370;4.832;2023-08-24T00:03:03;40.38;36.96;47.71;;
69670;Laerm;66535;52.370;4.832;2023-08-24T00:03:35;38.31;35.30;42.15;;
69670;Laerm;66535;52.370;4.832;2023-08-24T00:04:08;36.32;34.41;38.33;;
69670;Laerm;66535;52.370;4.832;2023-08-24T00:04:40;36.33;34.41;41.48;;
69670;Laerm;66535;52.370;4.832;2023-08-24T00:05:11;38.42;34.30;43.94;;
69670;Laerm;66535;52.370;4.832;2023-08-24T00:05:42;36.19;34.35;38.25;;
69670;Laerm;66535;52.370;4.832;2023-08-24T00:06:14;37.22;34.64;47.09;;
69670;Laerm;66535;52.370;4.832;2023-08-24T00:06:46;37.55;33.62;51.69;;
69670;Laerm;66535;52.370;4.832;2023-08-24T00:07:19;40.20;36.38;46.13;;
69670;Laerm;66535;52.370;4.832;2023-08-24T00:07:50;40.72;34.53;48.97;;
69670;Laerm;66535;52.370;4.832;2023-08-24T00:08:23;39.06;33.71;45.40;;
69670;Laerm;66535;52.370;4.832;2023-08-24T00:08:55;44.78;34.69;64.70;;
69670;Laerm;66535;52.370;4.832;2023-08-24T00:09:26;50.75;36.28;63.19;;
69670;Laerm;66535;52.370;4.832;2023-08-24T00:09:58;40.39;34.80;47.15;;
69670;Laerm;66535;52.370;4.832;2023-08-24T00:10:29;38.65;34.87;42.96;;
69670;Laerm;66535;52.370;4.832;2023-08-24T00:11:01;36.02;34.00;39.02;;
69670;Laerm;66535;52.370;4.832;2023-08-24T00:11:33;40.54;35.94;45.74;;
69670;Laerm;66535;52.370;4.832;2023-08-24T00:12:05;46.00;35.38;56.18;;
69670;Laerm;66535;52.370;4.832;2023-08-24T00:12:37;40.62;33.69;48.21;;
69670;Laerm;66535;52.370;4.832;2023-08-24T00:13:10;38.66;34.30;42.20;;
69670;Laerm;66535;52.370;4.832;2023-08-24T00:13:41;39.34;35.85;45.42;;
69670;Laerm;66535;52.370;4.832;2023-08-24T00:14:17;39.65;34.17;47.44;;
69670;Laerm;66535;52.370;4.832;2023-08-24T00:14:49;43.19;34.36;50.06;;
69670;Laerm;66535;52.370;4.832;2023-08-24T00:15:20;38.74;33.96;57.34;;
69670;Laerm;66535;52.370;4.832;2023-08-24T00:15:52;44.77;36.33;61.17;;
69670;Laerm;66535;52.370;4.832;2023-08-24T00:16:24;43.83;37.05;52.87;;
69670;Laerm;66535;52.370;4.832;2023-08-24T00:16:56;39.98;34.34;46.36;;
69670;Laerm;66535;52.370;4.832;2023-08-24T00:17:27;37.46;34.42;45.43;;
69670;Laerm;66535;52.370;4.832;2023-08-24T00:17:58;49.73;37.97;66.19;;
69670;Laerm;66535;52.370;4.832;2023-08-24T00:18:29;38.35;33.70;50.41;;
69670;Laerm;66535;52.370;4.832;2023-08-24T00:19:03;37.12;33.64;45.05;;
69670;Laerm;66535;52.370;4.832;2023-08-24T00:19:35;40.86;35.19;49.42;;
69670;Laerm;66535;52.370;4.832;2023-08-24T00:20:07;40.93;36.08;46.21;;
69670;Laerm;66535;52.370;4.832;2023-08-24T00:20:41;42.58;33.84;48.93;;
69670;Laerm;66535;52.370;4.832;2023-08-24T00:21:13;35.93;33.78;38.83;;
69670;Laerm;66535;52.370;4.832;2023-08-24T00:21:47;37.05;34.44;47.12;;
69670;Laerm;66535;52.370;4.832;2023-08-24T00:22:20;36.19;33.57;54.21;;
69670;Laerm;66535;52.370;4.832;2023-08-24T00:22:51;38.85;34.48;44.83;;
69670;Laerm;66535;52.370;4.832;2023-08-24T00:23:24;37.86;34.41;42.20;;
69670;Laerm;66535;52.370;4.832;2023-08-24T00:23:56;38.40;35.12;44.00;;
69670;Laerm;66535;52.370;4.832;2023-08-24T00:24:27;39.95;35.66;45.85;;
69670;Laerm;66535;52.370;4.832;2023-08-24T00:24:58;37.43;34.92;41.17;;
69670;Laerm;66535;52.370;4.832;2023-08-24T00:25:31;41.92;35.24;50.03;;
69670;Laerm;66535;52.370;4.832;2023-08-24T00:26:02;36.31;34.62;39.59;;
69670;Laerm;66535;52.370;4.832;2023-08-24T00:26:33;35.27;33.52;37.66;;
69670;Laerm;66535;52.370;4.832;2023-08-24T00:27:04;39.01;34.96;44.79;;
69670;Laerm;66535;52.370;4.832;2023-08-24T00:27:37;41.95;37.15;46.43;;
69670;Laerm;66535;52.370;4.832;2023-08-24T00:28:08;40.51;36.37;47.23;;
69670;Laerm;66535;52.370;4.832;2023-08-24T00:28:39;42.29;38.82;45.79;;
69670;Laerm;66535;52.370;4.832;2023-08-24T00:29:11;42.51;38.33;47.88;;
69670;Laerm;66535;52.370;4.832;2023-08-24T00:29:43;45.07;38.64;58.46;;
69670;Laerm;66535;52.370;4.832;2023-08-24T00:30:15;42.36;38.84;51.65;;
69670;Laerm;66535;52.370;4.832;2023-08-24T00:30:46;41.21;38.70;43.62;;
69670;Laerm;66535;52.370;4.832;2023-08-24T00:31:18;48.04;37.87;61.41;;
69670;Laerm;66535;52.370;4.832;2023-08-24T00:31:49;44.52;38.74;58.75;;
69670;Laerm;66535;52.370;4.832;2023-08-24T00:32:22;48.81;40.96;58.65;;
69670;Laerm;66535;52.370;4.832;2023-08-24T00:32:54;47.85;37.79;58.17;;
69670;Laerm;66535;52.370;4.832;2023-08-24T00:33:26;43.29;39.42;46.20;;
69670;Laerm;66535;52.370;4.832;2023-08-24T00:33:57;44.21;38.72;48.13;;
69670;Laerm;66535;52.370;4.832;2023-08-24T00:34:28;43.74;37.89;48.04;;
69670;Laerm;66535;52.370;4.832;2023-08-24T00:35:00;46.45;39.90;55.66;;
69670;Laerm;66535;52.370;4.832;2023-08-24T00:35:33;45.68;38.83;54.53;;
69670;Laerm;66535;52.370;4.832;2023-08-24T00:36:05;43.96;38.75;48.56;;
69670;Laerm;66535;52.370;4.832;2023-08-24T00:36:36;40.59;37.77;49.91;;
69670;Laerm;66535;52.370;4.832;2023-08-24T00:37:08;40.68;37.56;44.57;;
69670;Laerm;66535;52.370;4.832;2023-08-24T00:37:41;40.28;37.64;43.37;;
69670;Laerm;66535;52.370;4.832;2023-08-24T00:38:12;39.85;36.30;44.12;;
69670;Laerm;66535;52.370;4.832;2023-08-24T00:38:45;40.45;35.82;48.51;;
69670;Laerm;66535;52.370;4.832;2023-08-24T00:39:18;39.71;37.64;43.84;;
69670;Laerm;66535;52.370;4.832;2023-08-24T00:39:49;39.36;37.41;44.49;;
69670;Laerm;66535;52.370;4.832;2023-08-24T00:40:20;39.73;36.42;53.08;;
69670;Laerm;66535;52.370;4.832;2023-08-24T00:40:52;41.17;36.22;62.38;;
69670;Laerm;66535;52.370;4.832;2023-08-24T00:41:24;44.90;38.68;70.20;;
69670;Laerm;66535;52.370;4.832;2023-08-24T00:41:56;48.02;41.77;58.39;;
69670;Laerm;66535;52.370;4.832;2023-08-24T00:42:27;43.97;40.24;56.80;;
69670;Laerm;66535;52.370;4.832;2023-08-24T00:42:59;43.16;38.79;54.06;;
69670;Laerm;66535;52.370;4.832;2023-08-24T00:43:31;44.02;39.07;53.61;;
69670;Laerm;66535;52.370;4.832;2023-08-24T00:44:02;41.63;38.22;57.31;;
69670;Laerm;66535;52.370;4.832;2023-08-24T00:44:33;40.99;38.50;45.48;;
69670;Laerm;66535;52.370;4.832;2023-08-24T00:45:06;43.22;38.44;53.56;;
69670;Laerm;66535;52.370;4.832;2023-08-24T00:45:38;41.28;37.20;51.47;;
69670;Laerm;66535;52.370;4.832;2023-08-24T00:46:09;37.78;35.25;44.30;;
69670;Laerm;66535;52.370;4.832;2023-08-24T00:46:42;42.13;37.64;46.46;;
69670;Laerm;66535;52.370;4.832;2023-08-24T00:47:13;44.75;41.90;47.73;;
69670;Laerm;66535;52.370;4.832;2023-08-24T00:47:46;46.41;43.98;49.29;;
69670;Laerm;66535;52.370;4.832;2023-08-24T00:48:19;49.55;45.57;52.87;;
69670;Laerm;66535;52.370;4.832;2023-08-24T00:48:52;49.52;45.79;53.05;;
69670;Laerm;66535;52.370;4.832;2023-08-24T00:49:25;47.88;44.57;52.11;;
69670;Laerm;66535;52.370;4.832;2023-08-24T00:49:56;45.58;42.44;49.08;;
69670;Laerm;66535;52.370;4.832;2023-08-24T00:50:29;49.54;44.99;53.07;;
69670;Laerm;66535;52.370;4.832;2023-08-24T00:51:01;49.42;46.43;51.61;;
69670;Laerm;66535;52.370;4.832;2023-08-24T00:51:32;48.53;45.86;53.30;;
69670;Laerm;66535;52.370;4.832;2023-08-24T00:52:04;46.54;42.00;55.33;;
69670;Laerm;66535;52.370;4.832;2023-08-24T00:52:37;43.20;40.40;50.39;;
69670;Laerm;66535;52.370;4.832;2023-08-24T00:53:11;43.80;39.15;53.63;;
69670;Laerm;66535;52.370;4.832;2023-08-24T00:53:43;41.05;37.91;57.89;;
69670;Laerm;66535;52.370;4.832;2023-08-24T00:54:14;41.41;38.32;52.54;;
69670;Laerm;66535;52.370;4.832;2023-08-24T00:54:47;40.50;37.66;54.18;;
69670;Laerm;66535;52.370;4.832;2023-08-24T00:55:18;39.15;36.85;48.19;;
69670;Laerm;66535;52.370;4.832;2023-08-24T00:55:51;48.95;36.21;59.67;;
69670;Laerm;66535;52.370;4.832;2023-08-24T00:56:23;43.30;36.26;53.98;;
69670;Laerm;66535;52.370;4.832;2023-08-24T00:56:55;43.87;36.02;55.76;;
69670;Laerm;66535;52.370;4.832;2023-08-24T00:57:27;39.19;35.53;62.41;;
69670;Laerm;66535;52.370;4.832;2023-08-24T00:57:58;38.55;35.26;50.59;;
69670;Laerm;66535;52.370;4.832;2023-08-24T00:58:31;40.69;36.27;52.79;;
69670;Laerm;66535;52.370;4.832;2023-08-24T00:59:03;42.09;37.53;60.58;;
69670;Laerm;66535;52.370;4.832;2023-08-24T00:59:34;44.74;39.31;67.03;;
69670;Laerm;66535;52.370;4.832;2023-08-24T01:00:06;45.77;40.46;63.75;;
69670;Laerm;66535;52.370;4.832;2023-08-24T01:00:41;48.03;42.41;71.42;;
69670;Laerm;66535;52.370;4.832;2023-08-24T01:01:12;50.11;43.40;71.01;;
69670;Laerm;66535;52.370;4.832;2023-08-24T01:01:43;47.43;43.19;62.14;;
69670;Laerm;66535;52.370;4.832;2023-08-24T01:02:15;51.69;46.08;71.47;;
69670;Laerm;66535;52.370;4.832;2023-08-24T01:02:48;54.98;49.22;73.66;;
69670;Laerm;66535;52.370;4.832;2023-08-24T01:03:21;57.98;51.29;78.74;;
69670;Laerm;66535;52.370;4.832;2023-08-24T01:03:52;56.47;51.48;77.81;;
69670;Laerm;66535;52.370;4.832;2023-08-24T01:04:25;58.61;52.32;80.14;;
69670;Laerm;66535;52.370;4.832;2023-08-24T01:04:56;59.97;52.24;85.44;;
69670;Laerm;66535;52.370;4.832;2023-08-24T01:05:28;57.71;52.93;76.83;;
69670;Laerm;66535;52.370;4.832;2023-08-24T01:05:59;56.19;50.81;71.62;;
69670;Laerm;66535;52.370;4.832;2023-08-24T01:06:31;54.82;51.45;70.96;;
69670;Laerm;66535;52.370;4.832;2023-08-24T01:07:03;56.57;51.99;75.73;;
69670;Laerm;66535;52.370;4.832;2023-08-24T01:07:37;56.25;50.25;80.01;;
69670;Laerm;66535;52.370;4.832;2023-08-24T01:08:09;56.10;49.75;75.32;;
69670;Laerm;66535;52.370;4.832;2023-08-24T01:08:42;59.54;50.24;83.46;;
69670;Laerm;66535;52.370;4.832;2023-08-24T01:09:14;54.68;50.62;74.15;;
69670;Laerm;66535;52.370;4.832;2023-08-24T01:09:45;55.98;49.82;76.35;;
69670;Laerm;66535;52.370;4.832;2023-08-24T01:10:17;55.29;49.27;77.63;;
69670;Laerm;66535;52.370;4.832;2023-08-24T01:10:52;52.68;48.50;67.96;;
69670;Laerm;66535;52.370;4.832;2023-08-24T01:11:38;51.30;47.35;64.62;;
69670;Laerm;66535;52.370;4.832;2023-08-24T01:12:18;49.38;45.11;59.90;;
69670;Laerm;66535;52.370;4.832;2023-08-24T01:12:58;45.99;42.54;55.95;;
69670;Laerm;66535;52.370;4.832;2023-08-24T01:13:37;48.96;43.63;55.87;;
69670;Laerm;66535;52.370;4.832;2023-08-24T01:14:17;46.48;41.91;62.68;;
69670;Laerm;66535;52.370;4.832;2023-08-24T01:15:12;46.44;43.21;57.11;;
69670;Laerm;66535;52.370;4.832;2023-08-24T01:15:47;46.04;41.28;59.45;;
69670;Laerm;66535;52.370;4.832;2023-08-24T01:16:20;44.24;39.94;51.18;;
69670;Laerm;66535;52.370;4.832;2023-08-24T01:16:58;44.90;39.98;54.25;;
69670;Laerm;66535;52.370;4.832;2023-08-24T01:17:32;45.11;41.47;50.77;;
69670;Laerm;66535;52.370;4.832;2023-08-24T01:18:08;45.45;40.16;51.65;;
69670;Laerm;66535;52.370;4.832;2023-08-24T01:18:41;43.97;39.74;49.74;;
69670;Laerm;66535;52.370;4.832;2023-08-24T01:19:23;39.48;35.95;44.24;;
69670;Laerm;66535;52.370;4.832;2023-08-24T01:19:56;36.72;34.48;42.16;;
69670;Laerm;66535;52.370;4.832;2023-08-24T01:20:30;38.29;35.26;47.06;;
69670;Laerm;66535;52.370;4.832;2023-08-24T01:21:02;37.24;35.22;40.93;;
69670;Laerm;66535;52.370;4.832;2023-08-24T01:21:33;36.80;34.86;40.95;;
69670;Laerm;66535;52.370;4.832;2023-08-24T01:22:10;39.53;36.54;46.51;;
69670;Laerm;66535;52.370;4.832;2023-08-24T01:22:46;36.94;34.71;44.63;;
69670;Laerm;66535;52.370;4.832;2023-08-24T01:23:28;38.39;35.03;45.28;;
69670;Laerm;66535;52.370;4.832;2023-08-24T01:24:17;43.53;37.99;56.04;;
69670;Laerm;66535;52.370;4.832;2023-08-24T01:24:53;43.78;39.42;49.64;;
69670;Laerm;66535;52.370;4.832;2023-08-24T01:25:32;39.19;36.44;43.67;;
69670;Laerm;66535;52.370;4.832;2023-08-24T01:26:12;41.26;37.23;45.13;;
69670;Laerm;66535;52.370;4.832;2023-08-24T01:26:43;42.86;38.66;47.33;;
69670;Laerm;66535;52.370;4.832;2023-08-24T01:27:15;46.18;40.76;53.48;;
69670;Laerm;66535;52.370;4.832;2023-08-24T01:27:47;44.90;40.22;49.64;;
69670;Laerm;66535;52.370;4.832;2023-08-24T01:28:19;44.81;41.33;49.52;;
69670;Laerm;66535;52.370;4.832;2023-08-24T01:28:51;43.15;38.58;49.71;;
69670;Laerm;66535;52.370;4.832;2023-08-24T01:29:24;42.83;38.31;51.43;;
69670;Laerm;66535;52.370;4.832;2023-08-24T01:29:56;40.13;36.91;43.50;;
69670;Laerm;66535;52.370;4.832;2023-08-24T01:30:28;39.52;37.04;42.37;;
69670;Laerm;66535;52.370;4.832;2023-08-24T01:31:00;37.38;35.16;40.29;;
69670;Laerm;66535;52.370;4.832;2023-08-24T01:31:33;36.25;34.00;38.80;;
69670;Laerm;66535;52.370;4.832;2023-08-24T01:32:04;36.37;34.66;37.90;;
69670;Laerm;66535;52.370;4.832;2023-08-24T01:32:36;36.36;34.34;39.09;;
69670;Laerm;66535;52.370;4.832;2023-08-24T01:33:07;37.16;33.82;42.45;;
69670;Laerm;66535;52.370;4.832;2023-08-24T01:33:43;43.86;33.70;53.02;;
69670;Laerm;66535;52.370;4.832;2023-08-24T01:34:14;39.88;32.65;52.40;;
69670;Laerm;66535;52.370;4.832;2023-08-24T01:34:45;34.71;32.97;37.48;;
69670;Laerm;66535;52.370;4.832;2023-08-24T01:35:17;35.00;33.29;39.91;;
69670;Laerm;66535;52.370;4.832;2023-08-24T01:35:49;35.17;33.15;51.99;;
69670;Laerm;66535;52.370;4.832;2023-08-24T01:36:20;35.32;33.06;38.41;;
69670;Laerm;66535;52.370;4.832;2023-08-24T01:36:52;38.63;35.08;47.41;;
69670;Laerm;66535;52.370;4.832;2023-08-24T01:37:23;37.64;34.74;41.51;;
69670;Laerm;66535;52.370;4.832;2023-08-24T01:37:55;37.20;34.58;41.39;;
69670;Laerm;66535;52.370;4.832;2023-08-24T01:38:27;36.49;34.19;38.75;;
69670;Laerm;66535;52.370;4.832;2023-08-24T01:39:02;37.19;34.18;44.02;;
69670;Laerm;66535;52.370;4.832;2023-08-24T01:39:42;35.02;33.20;38.75;;
69670;Laerm;66535;52.370;4.832;2023-08-24T01:40:20;38.75;33.71;48.75;;
69670;Laerm;66535;52.370;4.832;2023-08-24T01:40:58;35.18;32.74;39.37;;
69670;Laerm;66535;52.370;4.832;2023-08-24T01:41:34;34.72;32.93;45.37;;
69670;Laerm;66535;52.370;4.832;2023-08-24T01:42:08;39.14;33.51;48.59;;
69670;Laerm;66535;52.370;4.832;2023-08-24T01:42:45;35.93;33.29;39.13;;
69670;Laerm;66535;52.370;4.832;2023-08-24T01:43:19;37.44;34.06;42.30;;
69670;Laerm;66535;52.370;4.832;2023-08-24T01:43:52;36.12;34.18;40.27;;
69670;Laerm;66535;52.370;4.832;2023-08-24T01:44:25;36.97;34.68;40.53;;
69670;Laerm;66535;52.370;4.832;2023-08-24T01:44:58;37.36;35.34;40.35;;
69670;Laerm;66535;52.370;4.832;2023-08-24T01:45:32;40.30;37.41;44.03;;
69670;Laerm;66535;52.370;4.832;2023-08-24T01:46:05;45.82;37.61;58.56;;
69670;Laerm;66535;52.370;4.832;2023-08-24T01:46:38;37.51;34.70;46.05;;
69670;Laerm;66535;52.370;4.832;2023-08-24T01:47:10;37.12;34.87;39.63;;
69670;Laerm;66535;52.370;4.832;2023-08-24T01:47:42;38.55;35.16;47.02;;
69670;Laerm;66535;52.370;4.832;2023-08-24T01:48:14;43.31;36.09;55.49;;
69670;Laerm;66535;52.370;4.832;2023-08-24T01:48:46;47.11;37.04;58.72;;
69670;Laerm;66535;52.370;4.832;2023-08-24T01:49:18;39.42;36.71;45.47;;
69670;Laerm;66535;52.370;4.832;2023-08-24T01:49:50;40.31;36.42;46.53;;
69670;Laerm;66535;52.370;4.832;2023-08-24T01:50:22;37.81;35.14;41.83;;
69670;Laerm;66535;52.370;4.832;2023-08-24T01:50:55;36.48;34.79;38.93;;
69670;Laerm;66535;52.370;4.832;2023-08-24T01:51:27;36.96;35.15;42.89;;
69670;Laerm;66535;52.370;4.832;2023-08-24T01:51:59;39.21;36.16;44.66;;
69670;Laerm;66535;52.370;4.832;2023-08-24T01:52:32;36.93;34.12;45.37;;
69670;Laerm;66535;52.370;4.832;2023-08-24T01:53:04;37.25;33.73;48.22;;
69670;Laerm;66535;52.370;4.832;2023-08-24T01:53:36;37.23;34.84;42.36;;
69670;Laerm;66535;52.370;4.832;2023-08-24T01:54:07;50.32;36.41;60.01;;
69670;Laerm;66535;52.370;4.832;2023-08-24T01:54:39;41.18;36.00;45.73;;
69670;Laerm;66535;52.370;4.832;2023-08-24T01:55:11;37.37;34.89;40.02;;
69670;Laerm;66535;52.370;4.832;2023-08-24T01:55:44;36.47;34.69;39.74;;
69670;Laerm;66535;52.370;4.832;2023-08-24T01:56:16;41.12;34.83;48.83;;
69670;Laerm;66535;52.370;4.832;2023-08-24T01:56:48;47.89;37.92;55.55;;
69670;Laerm;66535;52.370;4.832;2023-08-24T01:57:21;37.90;35.96;39.89;;
69670;Laerm;66535;52.370;4.832;2023-08-24T01:57:52;38.07;36.40;41.09;;
69670;Laerm;66535;52.370;4.832;2023-08-24T01:58:23;37.90;36.21;40.00;;
69670;Laerm;66535;52.370;4.832;2023-08-24T01:58:54;46.83;36.42;58.00;;
69670;Laerm;66535;52.370;4.832;2023-08-24T01:59:28;43.79;37.91;59.79;;
69670;Laerm;66535;52.370;4.832;2023-08-24T01:59:59;39.83;37.20;43.82;;
69670;Laerm;66535;52.370;4.832;2023-08-24T02:00:30;39.10;36.92;41.40;;
69670;Laerm;66535;52.370;4.832;2023-08-24T02:01:02;40.27;38.00;42.75;;
69670;Laerm;66535;52.370;4.832;2023-08-24T02:01:34;40.00;37.69;42.15;;
69670;Laerm;66535;52.370;4.832;2023-08-24T02:02:06;39.23;37.12;41.77;;
69670;Laerm;66535;52.370;4.832;2023-08-24T02:02:38;39.71;37.40;42.33;;
69670;Laerm;66535;52.370;4.832;2023-08-24T02:03:09;40.19;38.23;42.76;;
69670;Laerm;66535;52.370;4.832;2023-08-24T02:03:40;39.79;37.51;46.96;;
69670;Laerm;66535;52.370;4.832;2023-08-24T02:04:16;39.12;37.23;41.12;;
69670;Laerm;66535;52.370;4.832;2023-08-24T02:04:47;38.25;36.57;39.98;;
69670;Laerm;66535;52.370;4.832;2023-08-24T02:05:18;41.04;37.24;43.73;;
69670;Laerm;66535;52.370;4.832;2023-08-24T02:05:49;50.55;41.52;58.04;;
69670;Laerm;66535;52.370;4.832;2023-08-24T02:06:22;47.32;39.17;56.39;;
69670;Laerm;66535;52.370;4.832;2023-08-24T02:06:53;40.12;38.40;42.58;;
69670;Laerm;66535;52.370;4.832;2023-08-24T02:07:24;45.38;39.17;53.94;;
69670;Laerm;66535;52.370;4.832;2023-08-24T02:07:55;42.85;39.74;46.20;;
69670;Laerm;66535;52.370;4.832;2023-08-24T02:08:28;40.87;38.48;43.33;;
69670;Laerm;66535;52.370;4.832;2023-08-24T02:09:00;41.21;39.12;43.65;;
69670;Laerm;66535;52.370;4.832;2023-08-24T02:09:32;42.52;40.02;46.18;;
69670;Laerm;66535;52.370;4.832;2023-08-24T02:10:04;50.71;41.42;61.57;;
69670;Laerm;66535;52.370;4.832;2023-08-24T02:10:36;44.51;41.23;47.29;;
69670;Laerm;66535;52.370;4.832;2023-08-24T02:11:07;45.80;42.20;59.60;;
69670;Laerm;66535;52.370;4.832;2023-08-24T02:11:38;48.52;41.54;62.69;;
69670;Laerm;66535;52.370;4.832;2023-08-24T02:12:11;43.99;41.25;47.55;;
69670;Laerm;66535;52.370;4.832;2023-08-24T02:12:43;43.69;41.18;45.67;;
69670;Laerm;66535;52.370;4.832;2023-08-24T02:13:14;44.89;41.83;49.17;;
69670;Laerm;66535;52.370;4.832;2023-08-24T02:13:46;46.30;42.70;49.78;;
69670;Laerm;66535;52.370;4.832;2023-08-24T02:14:18;42.65;39.86;45.75;;
69670;Laerm;66535;52.370;4.832;2023-08-24T02:14:49;42.24;40.30;45.71;;
69670;Laerm;66535;52.370;4.832;2023-08-24T02:15:21;42.07;38.99;45.27;;
69670;Laerm;66535;52.370;4.832;2023-08-24T02:16:01;43.14;38.30;48.81;;
69670;Laerm;66535;52.370;4.832;2023-08-24T02:16:33;46.12;42.83;54.68;;
69670;Laerm;66535;52.370;4.832;2023-08-24T02:17:04;45.52;41.63;51.87;;
69670;Laerm;66535;52.370;4.832;2023-08-24T02:17:35;43.86;40.24;61.10;;
69670;Laerm;66535;52.370;4.832;2023-08-24T02:18:07;46.02;42.15;58.63;;
69670;Laerm;66535;52.370;4.832;2023-08-24T02:18:39;43.90;40.32;48.33;;
69670;Laerm;66535;52.370;4.832;2023-08-24T02:19:10;42.93;40.54;45.54;;
69670;Laerm;66535;52.370;4.832;2023-08-24T02:19:42;41.94;38.54;44.50;;
69670;Laerm;66535;52.370;4.832;2023-08-24T02:20:14;42.39;40.43;44.64;;
69670;Laerm;66535;52.370;4.832;2023-08-24T02:20:45;40.84;37.50;43.89;;
69670;Laerm;66535;52.370;4.832;2023-08-24T02:21:16;45.06;37.90;52.23;;
69670;Laerm;66535;52.370;4.832;2023-08-24T02:21:48;46.30;42.05;50.37;;
69670;Laerm;66535;52.370;4.832;2023-08-24T02:22:20;42.15;39.39;46.04;;
69670;Laerm;66535;52.370;4.832;2023-08-24T02:22:51;42.59;37.93;50.15;;
69670;Laerm;66535;52.370;4.832;2023-08-24T02:23:22;43.75;38.96;50.90;;
69670;Laerm;66535;52.370;4.832;2023-08-24T02:23:54;41.90;38.52;47.68;;
69670;Laerm;66535;52.370;4.832;2023-08-24T02:24:26;48.99;45.31;51.70;;
69670;Laerm;66535;52.370;4.832;2023-08-24T02:24:57;47.63;43.76;51.07;;
69670;Laerm;66535;52.370;4.832;2023-08-24T02:25:29;44.68;40.83;48.89;;
69670;Laerm;66535;52.370;4.832;2023-08-24T02:26:00;43.14;40.15;47.40;;
69670;Laerm;66535;52.370;4.832;2023-08-24T02:26:32;42.19;39.78;45.23;;
69670;Laerm;66535;52.370;4.832;2023-08-24T02:27:03;42.03;39.23;46.11;;
69670;Laerm;66535;52.370;4.832;2023-08-24T02:27:36;45.93;41.66;49.52;;
69670;Laerm;66535;52.370;4.832;2023-08-24T02:28:07;44.21;41.48;48.52;;
69670;Laerm;66535;52.370;4.832;2023-08-24T02:28:40;44.64;39.90;48.73;;
69670;Laerm;66535;52.370;4.832;2023-08-24T02:29:11;43.73;39.20;50.11;;
69670;Laerm;66535;52.370;4.832;2023-08-24T02:29:42;43.53;40.25;47.37;;
69670;Laerm;66535;52.370;4.832;2023-08-24T02:30:13;44.02;40.98;50.19;;
69670;Laerm;66535;52.370;4.832;2023-08-24T02:30:46;43.60;39.97;54.08;;
69670;Laerm;66535;52.370;4.832;2023-08-24T02:31:17;42.57;39.09;46.59;;
69670;Laerm;66535;52.370;4.832;2023-08-24T02:31:49;43.98;41.05;47.25;;
69670;Laerm;66535;52.370;4.832;2023-08-24T02:32:20;45.78;42.05;49.48;;
69670;Laerm;66535;52.370;4.832;2023-08-24T02:32:52;43.29;39.71;47.66;;
69670;Laerm;66535;52.370;4.832;2023-08-24T02:33:24;46.59;41.53;49.98;;
69670;Laerm;66535;52.370;4.832;2023-08-24T02:33:56;45.79;42.55;49.58;;
69670;Laerm;66535;52.370;4.832;2023-08-24T02:34:27;45.61;42.53;50.81;;
69670;Laerm;66535;52.370;4.832;2023-08-24T02:34:59;48.85;43.66;54.74;;
69670;Laerm;66535;52.370;4.832;2023-08-24T02:35:31;46.78;43.35;56.92;;
69670;Laerm;66535;52.370;4.832;2023-08-24T02:36:02;46.01;42.00;49.30;;
69670;Laerm;66535;52.370;4.832;2023-08-24T02:36:34;42.74;40.15;46.70;;
69670;Laerm;66535;52.370;4.832;2023-08-24T02:37:06;41.94;39.09;46.10;;
69670;Laerm;66535;52.370;4.832;2023-08-24T02:37:37;42.80;39.19;51.56;;
69670;Laerm;66535;52.370;4.832;2023-08-24T02:38:08;45.48;43.02;52.18;;
69670;Laerm;66535;52.370;4.832;2023-08-24T02:38:41;44.46;41.38;48.73;;
69670;Laerm;66535;52.370;4.832;2023-08-24T02:39:12;46.66;40.84;55.12;;
69670;Laerm;66535;52.370;4.832;2023-08-24T02:39:44;53.28;41.04;59.44;;
69670;Laerm;66535;52.370;4.832;2023-08-24T02:40:15;45.30;41.23;50.93;;
69670;Laerm;66535;52.370;4.832;2023-08-24T02:40:47;42.51;39.73;46.70;;
69670;Laerm;66535;52.370;4.832;2023-08-24T02:41:19;43.38;39.21;51.50;;
69670;Laerm;66535;52.370;4.832;2023-08-24T02:41:50;39.89;36.84;42.68;;
69670;Laerm;66535;52.370;4.832;2023-08-24T02:42:21;38.66;36.37;41.56;;
69670;Laerm;66535;52.370;4.832;2023-08-24T02:42:55;39.47;37.67;42.53;;
69670;Laerm;66535;52.370;4.832;2023-08-24T02:43:26;39.38;37.26;41.97;;
69670;Laerm;66535;52.370;4.832;2023-08-24T02:43:57;40.03;36.58;55.74;;
69670;Laerm;66535;52.370;4.832;2023-08-24T02:44:29;40.85;36.67;63.66;;
69670;Laerm;66535;52.370;4.832;2023-08-24T02:45:02;39.89;37.06;42.55;;
69670;Laerm;66535;52.370;4.832;2023-08-24T02:45:33;43.49;38.83;49.53;;
69670;Laerm;66535;52.370;4.832;2023-08-24T02:46:08;40.70;38.34;44.69;;
69670;Laerm;66535;52.370;4.832;2023-08-24T02:46:43;41.37;38.82;44.54;;
69670;Laerm;66535;52.370;4.832;2023-08-24T02:47:15;43.80;40.61;54.72;;
69670;Laerm;66535;52.370;4.832;2023-08-24T02:47:46;44.64;42.25;47.21;;
69670;Laerm;66535;52.370;4.832;2023-08-24T02:48:17;44.12;41.38;61.86;;
69670;Laerm;66535;52.370;4.832;2023-08-24T02:48:49;45.24;41.78;49.12;;
69670;Laerm;66535;52.370;4.832;2023-08-24T02:49:21;46.66;43.13;49.33;;
69670;Laerm;66535;52.370;4.832;2023-08-24T02:49:52;45.24;41.75;50.58;;
69670;Laerm;66535;52.370;4.832;2023-08-24T02:50:25;44.64;41.76;50.49;;
69670;Laerm;66535;52.370;4.832;2023-08-24T02:50:57;44.52;42.30;46.82;;
69670;Laerm;66535;52.370;4.832;2023-08-24T02:51:28;44.67;42.04;48.42;;
69670;Laerm;66535;52.370;4.832;2023-08-24T02:52:00;44.75;41.08;48.82;;
69670;Laerm;66535;52.370;4.832;2023-08-24T02:52:32;45.09;42.16;47.47;;
69670;Laerm;66535;52.370;4.832;2023-08-24T02:53:03;42.82;40.73;45.40;;
69670;Laerm;66535;52.370;4.832;2023-08-24T02:53:34;45.01;42.63;47.49;;
69670;Laerm;66535;52.370;4.832;2023-08-24T02:54:06;44.77;42.42;48.24;;
69670;Laerm;66535;52.370;4.832;2023-08-24T02:54:38;44.83;42.56;47.58;;
69670;Laerm;66535;52.370;4.832;2023-08-24T02:55:09;45.04;42.30;47.70;;
69670;Laerm;66535;52.370;4.832;2023-08-24T02:55:41;46.17;41.71;49.33;;
69670;Laerm;66535;52.370;4.832;2023-08-24T02:56:12;44.03;42.01;46.08;;
69670;Laerm;66535;52.370;4.832;2023-08-24T02:56:44;48.70;43.35;52.27;;
69670;Laerm;66535;52.370;4.832;2023-08-24T02:57:15;48.99;45.62;52.75;;
69670;Laerm;66535;52.370;4.832;2023-08-24T02:57:46;46.43;43.87;49.29;;
69670;Laerm;66535;52.370;4.832;2023-08-24T02:58:19;47.61;43.23;50.75;;
69670;Laerm;66535;52.370;4.832;2023-08-24T02:58:51;47.76;43.05;50.85;;
69670;Laerm;66535;52.370;4.832;2023-08-24T02:59:23;46.58;44.05;48.97;;
69670;Laerm;66535;52.370;4.832;2023-08-24T02:59:55;48.36;42.33;58.89;;
69670;Laerm;66535;52.370;4.832;2023-08-24T03:00:27;46.49;39.35;60.01;;
69670;Laerm;66535;52.370;4.832;2023-08-24T03:00:58;42.76;40.22;45.68;;
69670;Laerm;66535;52.370;4.832;2023-08-24T03:01:29;43.42;40.98;46.01;;
69670;Laerm;66535;52.370;4.832;2023-08-24T03:02:01;46.02;42.12;50.67;;